Terminal Aerodrome Forecast
Issued by NWS Sterling, VA

Current Version | Previous Version | Graphics & Text | Print | Product List | Glossary On
Versions: 1 2 3 4 5 6 7 8 9 10 11 12 13 14 15 16 17 18 19 20 21 22
000
FTUS41 KLWX 282335
TAFDCA
TAF
KDCA 282335Z 2900/2924 14006KT P6SM SCT250
     FM290600 18007KT P6SM BKN070
     FM291100 22008KT P6SM BKN080
     FM291300 23009KT P6SM SCT080=

USA.gov is the U.S. government's official web portal to all federal, state and local government web resources and services.